Portada
METAR-TAF:

METAR-TAF

Aeroports :

Loei, Tailàndia

latitud: 17-27N, longitud: 101-44E, altitud: 253 m

Observació

L'informe es va fer fa 3 hores i 26 minuts, a les 12:00 UTC
Vent 1 kt amb direcció variable
Temperatura 23°C
Humitat 83%
Pressió 1014 hPa
Visibilitat 10 km o més
Núvols disperses a una alçada de 3000 ft

METAR: VTUL 191200Z VRB01KT 9999 SCT030 23/20 Q1014 NOSIG

Hora: 22:26 (15:26 UTC)

Pronòstic

L'informe es va fer fa 4 hores i 26 minuts, a les 11:00 UTC
Pronòstic vàlid del 19 a les 12 UTC al 20 a les 12 UTC
Vent 5 kt del Est
Visibilitat 10 km o més
Núvols disperses a una alçada de 3000 ft

TAF: VTUL 191100Z 1912/2012 10005KT 9999 SCT030

Observacions i pronòstics meteorològics de més de 4000 aeroports (METAR i TAF).

Les estacions disponibles són els punts grocs i vermells al mapa.

Posi el ratolí al punt desitjat per veure el nom de l'estació.

Feu clic per veure les observacions i els pronòstics meteorològics.

Per canviar el mapa: feu clic els botons verds amb una creu de color negre per apropar; al botó verd amb un guió per allunyar la imatge; o en les fletxes verdes per a mapes adjacents.


METAR-TAF: